createdAt,value
2022-11-26T00:01:46.928Z,43.15
2022-11-26T00:04:17.339Z,36.83
2022-11-26T00:07:18.181Z,39.60
2022-11-26T00:12:31.564Z,33.63
2022-11-26T00:15:22.347Z,36.53
2022-11-26T00:21:10.111Z,33.72
2022-11-26T00:24:18.037Z,35.95
2022-11-26T00:30:10.140Z,33.63
2022-11-26T00:32:40.554Z,37.13
2022-11-26T00:35:21.401Z,34.33
2022-11-26T00:40:28.955Z,33.15
2022-11-26T00:43:01.989Z,32.55
2022-11-26T00:45:34.037Z,35.40
2022-11-26T00:48:23.580Z,33.00
2022-11-26T00:50:55.421Z,33.72
2022-11-26T00:53:28.382Z,34.78
2022-11-26T00:56:35.174Z,36.28
2022-11-26T00:59:21.405Z,36.65
2022-11-26T01:01:52.691Z,36.35
2022-11-26T01:04:33.961Z,38.08
2022-11-26T01:07:04.580Z,45.22
2022-11-26T01:09:35.696Z,47.28
2022-11-26T01:15:23.918Z,47.30
2022-11-26T01:17:55.521Z,44.67
2022-11-26T01:23:18.051Z,46.30
2022-11-26T01:26:06.394Z,45.70
2022-11-26T01:28:54.775Z,49.88
2022-11-26T01:34:33.470Z,49.20
2022-11-26T01:37:04.387Z,53.88
2022-11-26T01:42:45.038Z,51.72
2022-11-26T01:45:21.187Z,64.32
2022-11-26T01:48:15.377Z,69.60
2022-11-26T01:50:57.560Z,57.30
2022-11-26T01:53:43.561Z,54.92
2022-11-26T01:56:45.935Z,50.22
2022-11-26T01:59:30.914Z,49.45
2022-11-26T02:02:03.901Z,46.38
2022-11-26T02:04:42.173Z,54.28
2022-11-26T02:07:13.428Z,53.13
2022-11-26T02:09:45.302Z,56.67
2022-11-26T02:12:46.700Z,58.80
2022-11-26T02:15:37.671Z,54.58
2022-11-26T02:18:18.943Z,51.38
2022-11-26T02:21:16.481Z,48.33
2022-11-26T02:24:36.996Z,49.80
2022-11-26T02:30:24.791Z,53.90
2022-11-26T02:33:17.240Z,61.00
2022-11-26T02:35:53.515Z,63.55
2022-11-26T02:38:38.318Z,60.80
2022-11-26T02:41:10.433Z,60.63
2022-11-26T02:43:42.805Z,58.60
2022-11-26T02:46:19.990Z,50.10
2022-11-26T02:49:11.491Z,49.95
2022-11-26T02:51:59.037Z,52.10
2022-11-26T02:55:08.916Z,50.33
2022-11-26T02:57:47.102Z,52.42
2022-11-26T03:00:49.787Z,56.65
2022-11-26T03:03:59.093Z,57.58
2022-11-26T03:06:35.751Z,60.13
2022-11-26T03:12:29.795Z,60.05
2022-11-26T03:15:00.919Z,61.13
2022-11-26T03:17:31.957Z,59.80
2022-11-26T03:25:52.045Z,67.72
2022-11-26T03:31:11.659Z,80.22
2022-11-26T03:36:28.975Z,77.53
2022-11-26T03:39:13.211Z,84.38
2022-11-26T03:41:46.613Z,78.72
2022-11-26T03:47:22.690Z,74.35
2022-11-26T03:49:53.367Z,77.50
2022-11-26T03:52:24.169Z,75.82
2022-11-26T03:54:54.760Z,74.95
2022-11-26T03:57:25.608Z,77.18
2022-11-26T03:59:56.056Z,71.22
2022-11-26T04:02:26.701Z,69.32
2022-11-26T04:04:57.184Z,68.00
2022-11-26T04:07:27.674Z,77.85
2022-11-26T04:09:58.945Z,77.75
2022-11-26T04:12:29.341Z,76.72
2022-11-26T04:17:29.556Z,69.50
2022-11-26T04:20:00.196Z,66.45
2022-11-26T04:22:30.538Z,65.63
2022-11-26T04:27:31.302Z,69.03
2022-11-26T04:30:07.697Z,72.95
2022-11-26T04:32:42.894Z,72.68
2022-11-26T04:35:13.619Z,64.43
2022-11-26T04:37:44.259Z,67.32
2022-11-26T04:40:15.501Z,70.35
2022-11-26T04:42:46.011Z,66.43
2022-11-26T04:45:16.532Z,66.35
2022-11-26T04:47:47.873Z,68.47
2022-11-26T04:50:18.208Z,74.40
2022-11-26T04:55:21.415Z,79.28
2022-11-26T04:57:52.852Z,78.13
2022-11-26T05:00:28.127Z,82.38
2022-11-26T05:03:02.925Z,82.90
2022-11-26T05:05:33.498Z,84.68
2022-11-26T05:08:05.243Z,89.95
2022-11-26T05:10:35.852Z,83.05
2022-11-26T05:13:06.370Z,86.00
2022-11-26T05:15:36.806Z,86.60
2022-11-26T05:18:07.266Z,88.00
2022-11-26T05:20:37.753Z,88.20
2022-11-26T05:23:08.145Z,84.07
2022-11-26T05:25:38.662Z,86.38
2022-11-26T05:28:09.174Z,79.38
2022-11-26T05:30:40.335Z,77.32
2022-11-26T05:33:10.907Z,74.55
2022-11-26T05:35:41.592Z,67.40
2022-11-26T05:38:11.977Z,66.45
2022-11-26T05:40:42.580Z,62.85
2022-11-26T05:43:13.082Z,63.63
2022-11-26T05:45:43.464Z,70.35
2022-11-26T05:48:14.018Z,64.65
2022-11-26T05:50:44.634Z,54.70
2022-11-26T05:53:15.129Z,52.08
2022-11-26T05:55:45.577Z,47.35
2022-11-26T05:58:16.301Z,45.05
2022-11-26T06:00:46.742Z,48.35
2022-11-26T06:03:20.072Z,47.05
2022-11-26T06:05:51.407Z,36.65
2022-11-26T06:08:22.813Z,28.63
2022-11-26T06:10:53.310Z,34.00
2022-11-26T06:13:23.666Z,33.80
2022-11-26T06:15:54.358Z,34.38
2022-11-26T06:18:24.749Z,34.38
2022-11-26T06:20:55.024Z,32.25
2022-11-26T06:23:25.514Z,30.08
2022-11-26T06:25:55.970Z,28.40
2022-11-26T06:28:27.308Z,31.80
2022-11-26T06:30:57.645Z,25.17
2022-11-26T06:33:28.073Z,25.48
2022-11-26T06:36:03.403Z,25.67
2022-11-26T06:38:35.881Z,27.67
2022-11-26T06:41:08.785Z,31.13
2022-11-26T06:43:40.404Z,32.47
2022-11-26T06:46:13.438Z,34.55
2022-11-26T06:48:44.043Z,43.25
2022-11-26T06:51:20.089Z,31.27
2022-11-26T06:53:51.861Z,33.85
2022-11-26T06:56:23.197Z,24.95
2022-11-26T06:58:58.792Z,20.90
2022-11-26T07:01:30.071Z,20.77
2022-11-26T07:04:01.501Z,19.13
2022-11-26T07:06:34.230Z,22.40
2022-11-26T07:09:09.226Z,22.30
2022-11-26T07:11:41.651Z,24.15
2022-11-26T07:14:12.258Z,19.90
2022-11-26T07:16:42.878Z,19.40
2022-11-26T07:19:16.516Z,14.82
2022-11-26T07:21:46.864Z,10.93
2022-11-26T07:24:17.798Z,13.15
2022-11-26T07:26:48.929Z,7.80
2022-11-26T07:29:21.314Z,7.13
2022-11-26T07:31:51.869Z,7.20
2022-11-26T07:34:23.248Z,7.80
2022-11-26T07:36:57.842Z,8.70
2022-11-26T07:39:28.817Z,6.90
2022-11-26T07:41:59.176Z,7.15
2022-11-26T07:44:33.173Z,7.43
2022-11-26T07:47:04.408Z,7.05
2022-11-26T07:49:34.923Z,7.13
2022-11-26T07:52:05.533Z,8.63
2022-11-26T07:54:36.075Z,8.70
2022-11-26T07:57:06.546Z,7.68
2022-11-26T07:59:36.960Z,9.35
2022-11-26T08:02:07.352Z,8.50
2022-11-26T08:04:38.010Z,7.22
2022-11-26T08:07:08.758Z,8.60
2022-11-26T08:09:39.224Z,9.52
2022-11-26T08:12:10.051Z,8.35
2022-11-26T08:14:40.599Z,9.35
2022-11-26T08:17:11.290Z,8.77
2022-11-26T08:19:41.624Z,9.15
2022-11-26T08:22:11.932Z,6.82
2022-11-26T08:24:42.357Z,11.05
2022-11-26T08:27:12.847Z,8.27
2022-11-26T08:29:43.324Z,8.98
2022-11-26T08:32:13.705Z,8.68
2022-11-26T08:34:44.178Z,9.05
2022-11-26T08:37:15.273Z,8.43
2022-11-26T08:39:45.645Z,8.57
2022-11-26T08:42:18.331Z,8.13
2022-11-26T08:44:48.644Z,9.10
2022-11-26T08:47:19.032Z,9.13
2022-11-26T08:49:55.166Z,8.35
2022-11-26T08:52:25.663Z,8.82
2022-11-26T08:54:56.083Z,9.63
2022-11-26T08:57:43.640Z,9.68
2022-11-26T09:00:14.882Z,9.63
2022-11-26T09:02:45.409Z,9.50
2022-11-26T09:05:15.834Z,8.88
2022-11-26T09:07:49.042Z,8.65
2022-11-26T09:10:19.901Z,8.45
2022-11-26T09:12:50.384Z,8.80
2022-11-26T09:15:21.124Z,7.85
2022-11-26T09:17:51.460Z,8.00
2022-11-26T09:20:22.533Z,8.45
2022-11-26T09:22:53.559Z,7.88
2022-11-26T09:25:23.967Z,6.82
2022-11-26T09:27:54.368Z,9.90
2022-11-26T09:30:24.829Z,9.25
2022-11-26T09:32:55.510Z,7.93
2022-11-26T09:35:25.906Z,7.15
2022-11-26T09:37:56.523Z,8.80
2022-11-26T09:40:35.512Z,7.63
2022-11-26T09:43:22.601Z,8.05
2022-11-26T09:46:00.751Z,8.10
2022-11-26T09:48:35.145Z,8.18
2022-11-26T09:51:11.955Z,9.27
2022-11-26T09:53:47.303Z,8.32
2022-11-26T09:56:26.367Z,8.07
2022-11-26T09:59:03.873Z,8.35
2022-11-26T10:01:37.233Z,7.93
2022-11-26T10:04:12.124Z,8.18
2022-11-26T10:07:04.558Z,8.35
2022-11-26T10:10:02.183Z,11.23
2022-11-26T10:13:18.454Z,9.88
2022-11-26T10:16:13.576Z,9.55
2022-11-26T10:18:54.152Z,11.15
2022-11-26T10:21:58.155Z,10.07
2022-11-26T10:24:40.804Z,10.40
2022-11-26T10:27:18.901Z,11.25
2022-11-26T10:29:56.719Z,12.88
2022-11-26T10:32:33.344Z,11.23
2022-11-26T10:35:07.227Z,12.93
2022-11-26T10:37:37.756Z,13.20
2022-11-26T10:40:23.656Z,12.05
2022-11-26T10:43:23.373Z,13.52
2022-11-26T10:45:58.136Z,13.13
2022-11-26T10:48:32.180Z,13.13
2022-11-26T10:51:26.301Z,12.68
2022-11-26T10:54:07.118Z,13.77
2022-11-26T10:56:45.876Z,14.20
2022-11-26T10:59:29.528Z,15.50
2022-11-26T11:02:08.310Z,18.30
2022-11-26T11:04:43.158Z,14.68
2022-11-26T11:07:48.711Z,13.13
2022-11-26T11:10:24.411Z,14.70
2022-11-26T11:13:15.262Z,14.50
2022-11-26T11:15:46.638Z,21.98
2022-11-26T11:18:25.222Z,18.73
2022-11-26T11:21:00.040Z,22.33
2022-11-26T11:24:06.457Z,32.13
2022-11-26T11:26:30.480Z,33.47
2022-11-26T11:29:00.906Z,46.60
2022-11-26T11:31:31.780Z,40.85
2022-11-26T11:34:24.176Z,31.70
2022-11-26T11:37:18.299Z,34.92
2022-11-26T11:39:48.702Z,22.65
2022-11-26T11:42:31.396Z,23.52
2022-11-26T11:45:04.195Z,26.20
2022-11-26T11:47:50.880Z,29.52
2022-11-26T11:50:43.744Z,42.67
2022-11-26T11:53:38.760Z,46.00
2022-11-26T11:56:29.405Z,42.80
2022-11-26T11:59:21.633Z,34.17
2022-11-26T12:02:21.984Z,41.15
2022-11-26T12:07:42.182Z,46.17
2022-11-26T12:10:32.327Z,54.17
2022-11-26T12:13:08.037Z,87.10
2022-11-26T12:16:00.470Z,75.20
2022-11-26T12:18:44.680Z,62.33
2022-11-26T12:21:18.357Z,57.78
2022-11-26T12:24:16.728Z,50.40
2022-11-26T12:26:58.216Z,45.45
2022-11-26T12:29:41.074Z,37.70
2022-11-26T12:32:35.404Z,33.90
2022-11-26T12:35:14.885Z,28.65
2022-11-26T12:40:54.561Z,40.40
2022-11-26T12:43:49.849Z,44.15
2022-11-26T12:46:37.668Z,40.97
2022-11-26T12:49:32.174Z,36.38
2022-11-26T12:52:34.612Z,39.78
2022-11-26T12:55:28.869Z,44.72
2022-11-26T12:58:12.178Z,43.78
2022-11-26T13:00:43.132Z,41.30
2022-11-26T13:03:20.468Z,35.42
2022-11-26T13:06:05.034Z,32.78
2022-11-26T13:08:55.469Z,32.22
2022-11-26T13:14:40.682Z,34.80
2022-11-26T13:17:20.209Z,37.88
2022-11-26T13:20:03.492Z,35.20
2022-11-26T13:23:09.693Z,36.45
2022-11-26T13:26:06.356Z,40.55
2022-11-26T13:29:03.474Z,34.08
2022-11-26T13:32:13.266Z,40.47
2022-11-26T13:35:10.017Z,48.08
2022-11-26T13:38:10.271Z,45.78
2022-11-26T13:41:17.804Z,49.55
2022-11-26T13:44:20.009Z,57.47
2022-11-26T13:47:17.189Z,57.50
2022-11-26T13:50:02.190Z,53.08
2022-11-26T13:52:50.224Z,54.40
2022-11-26T13:55:33.538Z,55.05
2022-11-26T13:58:08.460Z,56.05
2022-11-26T14:00:39.400Z,53.78
2022-11-26T14:03:11.534Z,57.20
2022-11-26T14:06:09.752Z,64.47
2022-11-26T14:08:46.131Z,62.30
2022-11-26T14:11:52.404Z,52.88
2022-11-26T14:14:37.739Z,50.55
2022-11-26T14:17:17.203Z,49.78
2022-11-26T14:20:10.520Z,47.57
2022-11-26T14:22:42.058Z,45.13
2022-11-26T14:25:15.422Z,44.05
2022-11-26T14:27:57.733Z,41.70
2022-11-26T14:30:30.240Z,44.92
2022-11-26T14:33:19.761Z,43.80
2022-11-26T14:36:01.425Z,44.03
2022-11-26T14:38:40.292Z,45.55
2022-11-26T14:41:10.710Z,47.33
2022-11-26T14:46:19.556Z,51.63
2022-11-26T14:48:55.063Z,50.25
2022-11-26T14:51:30.251Z,51.85
2022-11-26T14:54:02.926Z,47.80
2022-11-26T14:56:33.454Z,50.97
2022-11-26T15:01:36.585Z,46.80
2022-11-26T15:04:09.370Z,42.25
2022-11-26T15:06:45.216Z,41.63
2022-11-26T15:09:18.454Z,42.75
2022-11-26T15:12:01.427Z,44.00
2022-11-26T15:14:46.048Z,46.10
2022-11-26T15:17:19.629Z,44.50
2022-11-26T15:19:54.095Z,41.00
2022-11-26T15:22:41.183Z,43.97
2022-11-26T15:25:23.071Z,42.78
2022-11-26T15:28:07.372Z,45.05
2022-11-26T15:30:40.382Z,45.55
2022-11-26T15:33:17.363Z,42.67
2022-11-26T15:35:47.866Z,40.00
2022-11-26T15:41:07.647Z,44.15
2022-11-26T15:43:57.915Z,44.45
2022-11-26T15:46:36.595Z,46.15
2022-11-26T15:49:13.949Z,41.80
2022-11-26T15:51:53.454Z,43.58
2022-11-26T15:54:56.520Z,43.03
2022-11-26T15:57:39.429Z,41.28
2022-11-26T16:00:23.720Z,42.50
2022-11-26T16:02:54.799Z,42.22
2022-11-26T16:05:42.317Z,42.13
2022-11-26T16:08:28.639Z,41.45
2022-11-26T16:11:19.654Z,43.35
2022-11-26T16:13:50.298Z,41.60
2022-11-26T16:16:26.497Z,42.75
2022-11-26T16:19:01.906Z,41.80
2022-11-26T16:21:36.661Z,44.28
2022-11-26T16:24:26.149Z,42.33
2022-11-26T16:27:29.899Z,43.65
2022-11-26T16:30:04.303Z,43.15
2022-11-26T16:32:35.719Z,41.60
2022-11-26T16:35:37.558Z,46.97
2022-11-26T16:37:57.843Z,43.08
2022-11-26T16:40:29.165Z,45.55
2022-11-26T16:43:00.062Z,43.58
2022-11-26T16:45:30.750Z,50.58
2022-11-26T16:48:04.946Z,47.65
2022-11-26T16:50:35.622Z,47.95
2022-11-26T16:55:36.056Z,45.83
2022-11-26T17:00:46.853Z,55.63
2022-11-26T17:03:22.845Z,80.25
2022-11-26T17:05:56.408Z,84.18
2022-11-26T17:08:28.515Z,85.43
2022-11-26T17:10:58.956Z,89.28
2022-11-26T17:13:31.693Z,88.47
2022-11-26T17:16:03.727Z,86.28
2022-11-26T17:18:36.057Z,89.88
2022-11-26T17:21:06.376Z,96.60
2022-11-26T17:23:36.836Z,85.97
2022-11-26T17:26:27.407Z,89.20
2022-11-26T17:31:27.701Z,122.60
2022-11-26T17:36:36.854Z,132.73
2022-11-26T17:39:10.645Z,137.60
2022-11-26T17:41:41.263Z,131.45
2022-11-26T17:44:11.953Z,123.18
2022-11-26T17:49:33.227Z,121.95
2022-11-26T17:52:03.991Z,115.13
2022-11-26T17:54:34.621Z,127.25
2022-11-26T17:59:35.421Z,119.93
2022-11-26T18:02:05.948Z,128.38
2022-11-26T18:07:17.756Z,124.43
2022-11-26T18:09:51.255Z,128.85
2022-11-26T18:12:25.748Z,131.20
2022-11-26T18:14:58.077Z,135.95
2022-11-26T18:17:29.106Z,140.38
2022-11-26T18:20:00.464Z,146.88
2022-11-26T18:22:30.799Z,131.68
2022-11-26T18:25:01.472Z,121.55
2022-11-26T18:27:32.706Z,114.68
2022-11-26T18:30:02.562Z,112.65
2022-11-26T18:32:32.542Z,109.30
2022-11-26T18:35:03.305Z,104.22
2022-11-26T18:37:33.168Z,112.80
2022-11-26T18:40:03.323Z,110.63
2022-11-26T18:42:37.459Z,110.35
2022-11-26T18:45:10.846Z,109.60
2022-11-26T18:47:41.163Z,106.45
2022-11-26T18:50:11.497Z,104.43
2022-11-26T18:52:41.675Z,101.35
2022-11-26T18:55:12.071Z,102.63
2022-11-26T18:57:41.989Z,101.20
2022-11-26T19:00:12.797Z,103.15
2022-11-26T19:02:42.636Z,110.38
2022-11-26T19:05:12.855Z,129.82
2022-11-26T19:07:43.192Z,119.40
2022-11-26T19:10:14.399Z,134.88
2022-11-26T19:12:44.133Z,132.25
2022-11-26T19:15:14.240Z,139.27
2022-11-26T19:17:44.195Z,128.05
2022-11-26T19:20:15.759Z,131.65
2022-11-26T19:22:47.072Z,132.95
2022-11-26T19:25:17.416Z,131.15
2022-11-26T19:27:47.367Z,129.32
2022-11-26T19:30:18.763Z,158.77
2022-11-26T19:32:48.573Z,148.77
2022-11-26T19:35:18.379Z,152.40
2022-11-26T19:37:48.548Z,160.00
2022-11-26T19:40:18.845Z,152.90
2022-11-26T19:42:48.760Z,141.45
2022-11-26T19:45:18.715Z,135.85
2022-11-26T19:47:48.476Z,120.05
2022-11-26T19:50:18.825Z,99.75
2022-11-26T19:52:49.006Z,94.88
2022-11-26T19:55:19.235Z,93.03
2022-11-26T19:57:49.052Z,77.82
2022-11-26T20:00:19.181Z,71.53
2022-11-26T20:02:49.053Z,64.97
2022-11-26T20:05:18.975Z,61.53
2022-11-26T20:07:50.416Z,60.70
2022-11-26T20:10:20.663Z,69.10
2022-11-26T20:12:50.783Z,66.05
2022-11-26T20:15:20.659Z,53.42
2022-11-26T20:17:50.491Z,55.20
2022-11-26T20:20:20.535Z,52.13
2022-11-26T20:22:50.660Z,50.10
2022-11-26T20:25:20.630Z,47.30
2022-11-26T20:27:50.580Z,49.08
2022-11-26T20:30:21.975Z,45.25
2022-11-26T20:32:52.027Z,44.85
2022-11-26T20:35:21.954Z,39.28
2022-11-26T20:37:52.683Z,34.90
2022-11-26T20:40:22.742Z,33.40
2022-11-26T20:42:55.108Z,34.75
2022-11-26T20:45:25.484Z,32.28
2022-11-26T20:47:55.322Z,30.42
2022-11-26T20:50:25.173Z,27.70
2022-11-26T20:52:55.022Z,28.15
2022-11-26T20:55:27.348Z,28.33
2022-11-26T20:57:57.523Z,27.63
2022-11-26T21:00:27.815Z,28.98
2022-11-26T21:02:57.921Z,29.00
2022-11-26T21:05:28.809Z,28.10
2022-11-26T21:07:58.746Z,27.58
2022-11-26T21:10:30.644Z,28.70
2022-11-26T21:13:00.537Z,31.15
2022-11-26T21:15:30.416Z,30.48
2022-11-26T21:18:00.459Z,30.90
2022-11-26T21:20:34.846Z,29.70
2022-11-26T21:23:06.024Z,32.75
2022-11-26T21:25:40.044Z,32.63
2022-11-26T21:28:10.877Z,31.33
2022-11-26T21:30:41.396Z,30.98
2022-11-26T21:33:11.184Z,32.17
2022-11-26T21:35:41.489Z,33.47
2022-11-26T21:38:11.990Z,31.63
2022-11-26T21:40:42.355Z,33.65
2022-11-26T21:43:12.839Z,34.15
2022-11-26T21:45:43.229Z,34.20
2022-11-26T21:48:13.644Z,32.97
2022-11-26T21:50:44.072Z,35.03
2022-11-26T21:53:14.507Z,34.60
2022-11-26T21:55:44.850Z,31.00
2022-11-26T21:58:15.270Z,32.22
2022-11-26T22:00:46.466Z,29.50
2022-11-26T22:03:16.956Z,34.20
2022-11-26T22:05:47.299Z,34.03
2022-11-26T22:08:17.687Z,31.70
2022-11-26T22:10:48.067Z,31.45
2022-11-26T22:13:18.542Z,31.55
2022-11-26T22:15:48.959Z,31.88
2022-11-26T22:18:19.352Z,26.90
2022-11-26T22:20:57.675Z,25.65
2022-11-26T22:23:32.222Z,25.52
2022-11-26T22:26:02.811Z,26.08
2022-11-26T22:28:33.633Z,26.88
2022-11-26T22:31:13.042Z,24.48
2022-11-26T22:33:44.057Z,20.95
2022-11-26T22:36:15.007Z,24.17
2022-11-26T22:38:45.803Z,23.55
2022-11-26T22:41:21.929Z,25.27
2022-11-26T22:43:52.443Z,25.23
2022-11-26T22:46:26.176Z,26.65
2022-11-26T22:49:00.046Z,23.67
2022-11-26T22:51:32.739Z,23.60
2022-11-26T22:54:06.559Z,27.35
2022-11-26T22:56:39.889Z,26.58
2022-11-26T22:59:13.368Z,26.95
2022-11-26T23:01:44.401Z,26.88
2022-11-26T23:04:15.008Z,38.08
2022-11-26T23:06:45.486Z,41.92
2022-11-26T23:09:15.880Z,44.58
2022-11-26T23:11:47.135Z,44.95
2022-11-26T23:14:17.711Z,43.92
2022-11-26T23:16:48.129Z,42.17
2022-11-26T23:19:20.164Z,45.15
2022-11-26T23:21:51.826Z,46.38
2022-11-26T23:24:23.094Z,44.75
2022-11-26T23:26:53.554Z,44.30
2022-11-26T23:29:23.896Z,42.35
2022-11-26T23:31:54.424Z,41.97
2022-11-26T23:34:24.902Z,37.80
2022-11-26T23:36:55.242Z,36.47
2022-11-26T23:39:26.169Z,33.17
2022-11-26T23:41:56.452Z,30.42
2022-11-26T23:44:26.946Z,31.17
2022-11-26T23:46:57.296Z,29.23
2022-11-26T23:49:27.658Z,29.70
2022-11-26T23:51:58.087Z,30.20
2022-11-26T23:54:28.624Z,31.55
2022-11-26T23:56:59.644Z,31.70
2022-11-26T23:59:30.071Z,30.70
